Terminal Aerodrome Forecast
Issued by NWS

Home | Current Version | Previous Version | Text Only | Print | Product List | Glossary On
Versions: 1 2 3 4 5 6 7 8 9 10 11 12 13 14 15 16 17 18 19 20
000
FTUS44 KEWX 311700
TAFSSF
TAF
KSSF 311735Z 3118/0118 09003KT P6SM BKN035
      TEMPO 3122/3124 P6SM TSRA BKN050CB
     FM010000 11006KT P6SM BKN035=

USA.gov is the U.S. government's official web portal to all federal, state and local government web resources and services.